sensor_id;sensor_type;location;lat;lon;timestamp;pressure;altitude;pressure_sealevel;temperature;humidity
62248;BME280;48237;50.140;8.486;2022-10-03T06:00:24;100602.58;;;12.48;100.00
62248;BME280;48237;50.140;8.486;2022-10-03T06:03:14;100604.39;;;11.47;96.26
62248;BME280;48237;50.140;8.486;2022-10-03T06:06:02;100603.12;;;11.98;91.28
62248;BME280;48237;50.140;8.486;2022-10-03T06:08:52;100598.99;;;13.15;87.06
62248;BME280;48237;50.140;8.486;2022-10-03T06:11:35;100599.52;;;12.52;86.51
62248;BME280;48237;50.140;8.486;2022-10-03T06:14:22;100601.51;;;12.38;88.50
62248;BME280;48237;50.140;8.486;2022-10-03T06:16:58;100599.58;;;12.16;90.39
62248;BME280;48237;50.140;8.486;2022-10-03T06:19:39;100599.63;;;12.60;87.09
62248;BME280;48237;50.140;8.486;2022-10-03T06:24:44;100609.39;;;13.05;92.48
62248;BME280;48237;50.140;8.486;2022-10-03T06:27:42;100608.86;;;11.28;96.04
62248;BME280;48237;50.140;8.486;2022-10-03T06:30:24;100613.42;;;11.77;92.90
62248;BME280;48237;50.140;8.486;2022-10-03T06:33:58;100612.90;;;12.12;89.69
62248;BME280;48237;50.140;8.486;2022-10-03T06:36:48;100617.34;;;11.47;92.55
62248;BME280;48237;50.140;8.486;2022-10-03T06:39:44;100618.55;;;11.57;95.79
62248;BME280;48237;50.140;8.486;2022-10-03T06:42:29;100620.78;;;11.78;93.36
62248;BME280;48237;50.140;8.486;2022-10-03T06:45:22;100626.04;;;12.22;89.54
62248;BME280;48237;50.140;8.486;2022-10-03T06:48:19;100625.47;;;12.86;87.37
62248;BME280;48237;50.140;8.486;2022-10-03T06:50:53;100629.53;;;12.74;84.85
62248;BME280;48237;50.140;8.486;2022-10-03T06:53:34;100634.82;;;12.13;88.84
62248;BME280;48237;50.140;8.486;2022-10-03T06:56:35;100633.01;;;12.97;83.46
62248;BME280;48237;50.140;8.486;2022-10-03T06:59:23;100640.77;;;12.36;87.90
62248;BME280;48237;50.140;8.486;2022-10-03T07:02:17;100643.54;;;12.04;88.23
62248;BME280;48237;50.140;8.486;2022-10-03T07:05:13;100648.54;;;11.08;94.50
62248;BME280;48237;50.140;8.486;2022-10-03T07:10:53;100651.29;;;12.95;97.50
62248;BME280;48237;50.140;8.486;2022-10-03T07:13:52;100650.05;;;11.44;98.66
62248;BME280;48237;50.140;8.486;2022-10-03T07:17:01;100649.66;;;11.87;93.08
62248;BME280;48237;50.140;8.486;2022-10-03T07:19:41;100642.38;;;11.87;91.27
62248;BME280;48237;50.140;8.486;2022-10-03T07:23:47;100641.74;;;12.49;87.85
62248;BME280;48237;50.140;8.486;2022-10-03T07:27:38;100647.50;;;12.44;89.36
62248;BME280;48237;50.140;8.486;2022-10-03T07:30:14;100653.22;;;11.70;92.23
62248;BME280;48237;50.140;8.486;2022-10-03T07:33:29;100653.82;;;12.62;87.81
62248;BME280;48237;50.140;8.486;2022-10-03T07:36:29;100659.24;;;12.05;88.32
62248;BME280;48237;50.140;8.486;2022-10-03T07:41:20;100665.55;;;14.39;87.94
62248;BME280;48237;50.140;8.486;2022-10-03T07:44:08;100668.42;;;12.84;86.48
62248;BME280;48237;50.140;8.486;2022-10-03T07:46:58;100670.75;;;12.42;89.57
62248;BME280;48237;50.140;8.486;2022-10-03T07:49:59;100673.56;;;12.95;88.80
62248;BME280;48237;50.140;8.486;2022-10-03T07:52:55;100674.95;;;12.27;89.18
62248;BME280;48237;50.140;8.486;2022-10-03T07:55:40;100674.62;;;13.47;84.66
62248;BME280;48237;50.140;8.486;2022-10-03T07:59:01;100672.55;;;13.60;81.95
62248;BME280;48237;50.140;8.486;2022-10-03T08:01:38;100676.31;;;14.20;79.40
62248;BME280;48237;50.140;8.486;2022-10-03T08:04:28;100681.73;;;13.56;78.46
62248;BME280;48237;50.140;8.486;2022-10-03T08:07:08;100681.31;;;13.54;81.82
62248;BME280;48237;50.140;8.486;2022-10-03T08:09:50;100685.00;;;13.22;79.72
62248;BME280;48237;50.140;8.486;2022-10-03T08:14:43;100690.61;;;14.46;84.93
62248;BME280;48237;50.140;8.486;2022-10-03T08:18:30;100694.15;;;12.22;86.61
62248;BME280;48237;50.140;8.486;2022-10-03T08:21:02;100688.24;;;13.42;83.09
62248;BME280;48237;50.140;8.486;2022-10-03T08:24:14;100688.62;;;13.14;83.73
62248;BME280;48237;50.140;8.486;2022-10-03T08:26:58;100691.24;;;12.72;84.18
62248;BME280;48237;50.140;8.486;2022-10-03T08:29:39;100691.88;;;13.31;84.66
62248;BME280;48237;50.140;8.486;2022-10-03T08:32:32;100697.62;;;13.72;80.96
62248;BME280;48237;50.140;8.486;2022-10-03T08:35:24;100696.31;;;13.04;84.59
62248;BME280;48237;50.140;8.486;2022-10-03T08:39:09;100693.10;;;13.49;81.57
62248;BME280;48237;50.140;8.486;2022-10-03T08:41:58;100701.76;;;12.90;85.83
62248;BME280;48237;50.140;8.486;2022-10-03T08:44:44;100702.02;;;12.49;86.51
62248;BME280;48237;50.140;8.486;2022-10-03T08:47:33;100696.38;;;12.91;75.65
62248;BME280;48237;50.140;8.486;2022-10-03T08:50:22;100702.58;;;12.07;88.57
62248;BME280;48237;50.140;8.486;2022-10-03T08:53:37;100700.70;;;12.86;83.64
62248;BME280;48237;50.140;8.486;2022-10-03T08:56:14;100693.64;;;14.26;77.48
62248;BME280;48237;50.140;8.486;2022-10-03T08:59:01;100695.81;;;13.70;76.53
62248;BME280;48237;50.140;8.486;2022-10-03T09:01:37;100698.14;;;13.80;74.09
62248;BME280;48237;50.140;8.486;2022-10-03T09:05:36;100697.90;;;12.73;76.43
62248;BME280;48237;50.140;8.486;2022-10-03T09:11:00;100693.87;;;13.63;83.63
62248;BME280;48237;50.140;8.486;2022-10-03T09:13:54;100696.71;;;11.74;83.08
62248;BME280;48237;50.140;8.486;2022-10-03T09:16:53;100695.27;;;11.97;82.06
62248;BME280;48237;50.140;8.486;2022-10-03T09:19:40;100693.49;;;12.91;80.81
62248;BME280;48237;50.140;8.486;2022-10-03T09:22:36;100693.89;;;11.60;74.62
62248;BME280;48237;50.140;8.486;2022-10-03T09:25:20;100690.32;;;13.15;78.23
62248;BME280;48237;50.140;8.486;2022-10-03T09:28:10;100690.11;;;13.74;76.58
62248;BME280;48237;50.140;8.486;2022-10-03T09:30:51;100691.78;;;14.09;75.96
62248;BME280;48237;50.140;8.486;2022-10-03T09:33:50;100691.44;;;13.15;75.68
62248;BME280;48237;50.140;8.486;2022-10-03T09:36:39;100690.18;;;14.16;73.62
62248;BME280;48237;50.140;8.486;2022-10-03T09:39:40;100693.05;;;13.23;79.51
62248;BME280;48237;50.140;8.486;2022-10-03T09:42:35;100692.15;;;13.86;76.78
62248;BME280;48237;50.140;8.486;2022-10-03T09:45:14;100692.03;;;13.75;77.48
62248;BME280;48237;50.140;8.486;2022-10-03T09:48:15;100691.86;;;13.86;76.69
62248;BME280;48237;50.140;8.486;2022-10-03T09:50:57;100687.64;;;14.17;77.64
62248;BME280;48237;50.140;8.486;2022-10-03T09:53:49;100686.07;;;14.30;72.53
62248;BME280;48237;50.140;8.486;2022-10-03T09:56:41;100684.56;;;14.86;77.77
62248;BME280;48237;50.140;8.486;2022-10-03T09:59:27;100684.23;;;14.89;74.84
62248;BME280;48237;50.140;8.486;2022-10-03T10:02:10;100684.16;;;14.44;77.47
62248;BME280;48237;50.140;8.486;2022-10-03T10:04:53;100685.54;;;15.57;73.05
62248;BME280;48237;50.140;8.486;2022-10-03T10:07:43;100690.02;;;14.79;77.37
62248;BME280;48237;50.140;8.486;2022-10-03T10:11:31;100694.08;;;13.39;74.13
62248;BME280;48237;50.140;8.486;2022-10-03T10:14:18;100690.64;;;14.27;75.01
62248;BME280;48237;50.140;8.486;2022-10-03T10:19:31;100684.48;;;13.76;83.71
62248;BME280;48237;50.140;8.486;2022-10-03T10:22:20;100685.80;;;13.85;82.97
62248;BME280;48237;50.140;8.486;2022-10-03T10:25:35;100681.74;;;14.12;73.55
62248;BME280;48237;50.140;8.486;2022-10-03T10:28:21;100679.55;;;13.08;77.57
62248;BME280;48237;50.140;8.486;2022-10-03T10:33:54;100681.54;;;14.29;74.88
62248;BME280;48237;50.140;8.486;2022-10-03T10:36:56;100681.02;;;13.38;74.25
62248;BME280;48237;50.140;8.486;2022-10-03T10:46:09;100682.24;;;13.40;82.53
62248;BME280;48237;50.140;8.486;2022-10-03T10:49:30;100679.15;;;12.83;77.90
62248;BME280;48237;50.140;8.486;2022-10-03T10:52:35;100676.38;;;14.77;71.47
62248;BME280;48237;50.140;8.486;2022-10-03T10:57:44;100673.34;;;14.91;72.00
62248;BME280;48237;50.140;8.486;2022-10-03T11:00:24;100670.60;;;14.87;68.29
62248;BME280;48237;50.140;8.486;2022-10-03T11:05:41;100672.23;;;16.40;67.47
62248;BME280;48237;50.140;8.486;2022-10-03T11:08:44;100674.09;;;15.22;65.32
62248;BME280;48237;50.140;8.486;2022-10-03T11:11:44;100667.38;;;16.20;66.29
62248;BME280;48237;50.140;8.486;2022-10-03T11:19:37;100666.90;;;16.85;64.58
62248;BME280;48237;50.140;8.486;2022-10-03T11:26:30;100662.70;;;14.78;71.03
62248;BME280;48237;50.140;8.486;2022-10-03T11:35:22;100652.42;;;14.87;68.52
62248;BME280;48237;50.140;8.486;2022-10-03T11:38:00;100654.88;;;14.75;66.06
62248;BME280;48237;50.140;8.486;2022-10-03T11:40:37;100656.34;;;15.85;63.02
62248;BME280;48237;50.140;8.486;2022-10-03T11:44:36;100655.64;;;16.00;70.51
62248;BME280;48237;50.140;8.486;2022-10-03T11:47:31;100647.92;;;16.57;63.94
62248;BME280;48237;50.140;8.486;2022-10-03T11:50:19;100645.33;;;16.93;61.62
62248;BME280;48237;50.140;8.486;2022-10-03T11:53:04;100651.19;;;17.39;64.95
62248;BME280;48237;50.140;8.486;2022-10-03T11:55:37;100648.44;;;17.30;61.29
62248;BME280;48237;50.140;8.486;2022-10-03T11:58:20;100643.16;;;17.62;59.69
62248;BME280;48237;50.140;8.486;2022-10-03T12:00:58;100644.35;;;16.92;60.20
62248;BME280;48237;50.140;8.486;2022-10-03T12:03:31;100640.01;;;16.37;58.65
62248;BME280;48237;50.140;8.486;2022-10-03T12:06:07;100648.94;;;15.86;62.43
62248;BME280;48237;50.140;8.486;2022-10-03T12:08:39;100652.28;;;16.41;58.40
62248;BME280;48237;50.140;8.486;2022-10-03T12:11:13;100649.34;;;16.24;59.09
62248;BME280;48237;50.140;8.486;2022-10-03T12:13:51;100650.30;;;15.98;63.68
62248;BME280;48237;50.140;8.486;2022-10-03T12:16:24;100641.94;;;16.20;60.92
62248;BME280;48237;50.140;8.486;2022-10-03T12:19:00;100637.69;;;16.96;58.69
62248;BME280;48237;50.140;8.486;2022-10-03T12:21:39;100636.23;;;16.40;60.48
62248;BME280;48237;50.140;8.486;2022-10-03T12:24:23;100634.63;;;16.69;63.25
62248;BME280;48237;50.140;8.486;2022-10-03T12:26:57;100629.69;;;16.70;62.97
62248;BME280;48237;50.140;8.486;2022-10-03T12:29:29;100632.98;;;15.72;68.16
62248;BME280;48237;50.140;8.486;2022-10-03T12:32:07;100630.79;;;14.30;65.30
62248;BME280;48237;50.140;8.486;2022-10-03T12:34:42;100625.25;;;15.32;66.75
62248;BME280;48237;50.140;8.486;2022-10-03T12:37:26;100631.45;;;14.54;65.59
62248;BME280;48237;50.140;8.486;2022-10-03T12:40:02;100629.33;;;14.53;63.88
62248;BME280;48237;50.140;8.486;2022-10-03T12:42:33;100625.96;;;15.98;66.97
62248;BME280;48237;50.140;8.486;2022-10-03T12:45:08;100621.74;;;15.12;65.31
62248;BME280;48237;50.140;8.486;2022-10-03T12:47:54;100611.96;;;15.67;62.66
62248;BME280;48237;50.140;8.486;2022-10-03T12:50:36;100605.40;;;15.88;65.39
62248;BME280;48237;50.140;8.486;2022-10-03T12:53:21;100603.98;;;17.09;61.65
62248;BME280;48237;50.140;8.486;2022-10-03T12:56:01;100608.95;;;17.34;62.74
62248;BME280;48237;50.140;8.486;2022-10-03T12:58:37;100612.87;;;16.74;61.97
62248;BME280;48237;50.140;8.486;2022-10-03T13:01:17;100615.36;;;15.24;64.04
62248;BME280;48237;50.140;8.486;2022-10-03T13:03:50;100608.63;;;16.88;60.90
62248;BME280;48237;50.140;8.486;2022-10-03T13:06:34;100608.88;;;15.63;61.56
62248;BME280;48237;50.140;8.486;2022-10-03T13:09:14;100605.08;;;16.17;63.91
62248;BME280;48237;50.140;8.486;2022-10-03T13:11:54;100605.96;;;17.05;60.04
62248;BME280;48237;50.140;8.486;2022-10-03T13:14:40;100604.31;;;16.36;61.80
62248;BME280;48237;50.140;8.486;2022-10-03T13:17:19;100602.72;;;16.79;60.59
62248;BME280;48237;50.140;8.486;2022-10-03T13:19:54;100600.82;;;17.35;60.85
62248;BME280;48237;50.140;8.486;2022-10-03T13:22:33;100597.32;;;17.88;60.37
62248;BME280;48237;50.140;8.486;2022-10-03T13:25:16;100600.92;;;17.56;64.31
62248;BME280;48237;50.140;8.486;2022-10-03T13:27:49;100600.73;;;17.47;68.19
62248;BME280;48237;50.140;8.486;2022-10-03T13:30:21;100597.95;;;17.16;66.02
62248;BME280;48237;50.140;8.486;2022-10-03T13:32:54;100595.57;;;17.41;57.67
62248;BME280;48237;50.140;8.486;2022-10-03T13:35:31;100595.42;;;17.69;56.29
62248;BME280;48237;50.140;8.486;2022-10-03T13:39:13;100595.67;;;17.02;65.71
62248;BME280;48237;50.140;8.486;2022-10-03T13:41:56;100592.22;;;17.87;61.84
62248;BME280;48237;50.140;8.486;2022-10-03T13:44:34;100590.76;;;15.76;60.26
62248;BME280;48237;50.140;8.486;2022-10-03T13:47:13;100591.23;;;17.35;56.56
62248;BME280;48237;50.140;8.486;2022-10-03T13:49:51;100597.89;;;17.06;58.06
62248;BME280;48237;50.140;8.486;2022-10-03T13:52:26;100596.41;;;15.89;60.45
62248;BME280;48237;50.140;8.486;2022-10-03T13:55:09;100601.98;;;15.30;62.06
62248;BME280;48237;50.140;8.486;2022-10-03T13:57:43;100595.23;;;15.67;62.93
62248;BME280;48237;50.140;8.486;2022-10-03T14:00:14;100592.58;;;16.98;58.59
62248;BME280;48237;50.140;8.486;2022-10-03T14:03:12;100596.33;;;15.89;60.75
62248;BME280;48237;50.140;8.486;2022-10-03T14:05:56;100591.30;;;16.37;59.88
62248;BME280;48237;50.140;8.486;2022-10-03T14:08:41;100586.75;;;16.42;61.76
62248;BME280;48237;50.140;8.486;2022-10-03T14:11:22;100585.93;;;15.87;60.85
62248;BME280;48237;50.140;8.486;2022-10-03T14:14:07;100588.30;;;16.63;58.13
62248;BME280;48237;50.140;8.486;2022-10-03T14:16:40;100586.80;;;16.94;57.16
62248;BME280;48237;50.140;8.486;2022-10-03T14:19:14;100586.99;;;16.80;59.90
62248;BME280;48237;50.140;8.486;2022-10-03T14:21:53;100586.38;;;16.21;61.25
62248;BME280;48237;50.140;8.486;2022-10-03T14:24:37;100589.59;;;16.93;60.14
62248;BME280;48237;50.140;8.486;2022-10-03T14:27:19;100594.72;;;15.67;58.52
62248;BME280;48237;50.140;8.486;2022-10-03T14:29:57;100589.61;;;15.64;60.55
62248;BME280;48237;50.140;8.486;2022-10-03T14:32:35;100583.43;;;16.44;60.59
62248;BME280;48237;50.140;8.486;2022-10-03T14:35:15;100588.28;;;16.30;56.96
62248;BME280;48237;50.140;8.486;2022-10-03T14:37:50;100590.00;;;16.34;62.73
62248;BME280;48237;50.140;8.486;2022-10-03T14:40:22;100588.47;;;16.31;59.45
62248;BME280;48237;50.140;8.486;2022-10-03T14:43:03;100593.80;;;16.02;57.57
62248;BME280;48237;50.140;8.486;2022-10-03T14:45:42;100594.20;;;16.62;60.26
62248;BME280;48237;50.140;8.486;2022-10-03T14:48:16;100595.95;;;15.91;59.01
62248;BME280;48237;50.140;8.486;2022-10-03T14:50:46;100592.49;;;15.83;59.61
62248;BME280;48237;50.140;8.486;2022-10-03T14:53:17;100590.29;;;15.26;64.36
62248;BME280;48237;50.140;8.486;2022-10-03T14:55:51;100593.57;;;14.68;63.49
62248;BME280;48237;50.140;8.486;2022-10-03T14:58:24;100593.50;;;15.73;66.61
62248;BME280;48237;50.140;8.486;2022-10-03T15:00:54;100589.68;;;15.65;62.12
62248;BME280;48237;50.140;8.486;2022-10-03T15:03:31;100586.02;;;15.31;62.33
62248;BME280;48237;50.140;8.486;2022-10-03T15:06:15;100584.02;;;15.71;62.06
62248;BME280;48237;50.140;8.486;2022-10-03T15:08:46;100584.75;;;14.64;66.09
62248;BME280;48237;50.140;8.486;2022-10-03T15:11:16;100581.73;;;15.70;63.25
62248;BME280;48237;50.140;8.486;2022-10-03T15:13:52;100582.44;;;15.63;61.34
62248;BME280;48237;50.140;8.486;2022-10-03T15:16:21;100581.22;;;16.11;61.77
62248;BME280;48237;50.140;8.486;2022-10-03T15:18:53;100575.48;;;15.56;64.37
62248;BME280;48237;50.140;8.486;2022-10-03T15:21:22;100570.63;;;15.89;61.64
62248;BME280;48237;50.140;8.486;2022-10-03T15:23:55;100574.62;;;15.02;63.55
62248;BME280;48237;50.140;8.486;2022-10-03T15:26:25;100571.01;;;15.93;63.11
62248;BME280;48237;50.140;8.486;2022-10-03T15:28:56;100567.11;;;16.04;61.32
62248;BME280;48237;50.140;8.486;2022-10-03T15:31:32;100563.93;;;16.10;63.52
62248;BME280;48237;50.140;8.486;2022-10-03T15:34:02;100558.79;;;16.88;59.71
62248;BME280;48237;50.140;8.486;2022-10-03T15:36:32;100564.47;;;15.97;61.01
62248;BME280;48237;50.140;8.486;2022-10-03T15:39:02;100562.90;;;15.88;65.56
62248;BME280;48237;50.140;8.486;2022-10-03T15:41:34;100560.67;;;16.66;60.10
62248;BME280;48237;50.140;8.486;2022-10-03T15:44:05;100560.72;;;16.52;61.47
62248;BME280;48237;50.140;8.486;2022-10-03T15:46:42;100561.37;;;16.63;61.07
62248;BME280;48237;50.140;8.486;2022-10-03T15:49:18;100557.20;;;16.12;59.49
62248;BME280;48237;50.140;8.486;2022-10-03T15:51:47;100558.41;;;16.37;62.29
62248;BME280;48237;50.140;8.486;2022-10-03T15:54:19;100562.69;;;15.55;66.90
62248;BME280;48237;50.140;8.486;2022-10-03T15:56:50;100559.69;;;16.71;60.85
62248;BME280;48237;50.140;8.486;2022-10-03T15:59:21;100565.85;;;15.58;68.11
62248;BME280;48237;50.140;8.486;2022-10-03T16:01:51;100560.98;;;16.82;59.27
62248;BME280;48237;50.140;8.486;2022-10-03T16:04:23;100564.28;;;16.69;61.23
62248;BME280;48237;50.140;8.486;2022-10-03T16:06:58;100558.54;;;16.68;61.01
62248;BME280;48237;50.140;8.486;2022-10-03T16:09:29;100558.50;;;16.24;62.43
62248;BME280;48237;50.140;8.486;2022-10-03T16:12:10;100557.99;;;15.90;65.64
62248;BME280;48237;50.140;8.486;2022-10-03T16:14:43;100550.73;;;16.13;63.99
62248;BME280;48237;50.140;8.486;2022-10-03T16:17:17;100548.10;;;16.50;59.69
62248;BME280;48237;50.140;8.486;2022-10-03T16:19:51;100545.64;;;16.41;61.66
62248;BME280;48237;50.140;8.486;2022-10-03T16:22:25;100546.37;;;16.01;63.68
62248;BME280;48237;50.140;8.486;2022-10-03T16:25:03;100542.83;;;16.62;59.13
62248;BME280;48237;50.140;8.486;2022-10-03T16:27:37;100545.17;;;16.69;59.16
62248;BME280;48237;50.140;8.486;2022-10-03T16:30:18;100547.51;;;15.91;63.37
62248;BME280;48237;50.140;8.486;2022-10-03T16:32:51;100542.13;;;15.94;64.17
62248;BME280;48237;50.140;8.486;2022-10-03T16:35:30;100546.85;;;15.08;69.44
62248;BME280;48237;50.140;8.486;2022-10-03T16:37:59;100544.19;;;15.55;61.90
62248;BME280;48237;50.140;8.486;2022-10-03T16:40:28;100542.54;;;16.02;62.14
62248;BME280;48237;50.140;8.486;2022-10-03T16:42:57;100546.80;;;15.20;65.10
62248;BME280;48237;50.140;8.486;2022-10-03T16:45:28;100555.08;;;15.10;66.41
62248;BME280;48237;50.140;8.486;2022-10-03T16:47:59;100549.66;;;15.33;69.18
62248;BME280;48237;50.140;8.486;2022-10-03T16:50:28;100543.18;;;15.15;65.78
62248;BME280;48237;50.140;8.486;2022-10-03T16:52:58;100537.43;;;15.57;64.42
62248;BME280;48237;50.140;8.486;2022-10-03T16:55:28;100542.13;;;14.90;68.62
62248;BME280;48237;50.140;8.486;2022-10-03T16:57:59;100535.38;;;15.88;66.66
62248;BME280;48237;50.140;8.486;2022-10-03T17:00:36;100532.17;;;15.14;70.06
62248;BME280;48237;50.140;8.486;2022-10-03T17:03:15;100523.51;;;15.18;73.45
62248;BME280;48237;50.140;8.486;2022-10-03T17:05:46;100527.79;;;11.62;93.66
62248;BME280;48237;50.140;8.486;2022-10-03T17:08:17;100520.88;;;13.68;86.62
62248;BME280;48237;50.140;8.486;2022-10-03T17:10:52;100525.47;;;14.48;82.73
62248;BME280;48237;50.140;8.486;2022-10-03T17:13:23;100521.64;;;13.54;86.77
62248;BME280;48237;50.140;8.486;2022-10-03T17:15:59;100529.85;;;14.32;80.50
62248;BME280;48237;50.140;8.486;2022-10-03T17:18:36;100529.34;;;14.48;78.22
62248;BME280;48237;50.140;8.486;2022-10-03T17:21:14;100526.09;;;14.21;80.48
62248;BME280;48237;50.140;8.486;2022-10-03T17:23:49;100524.34;;;13.61;85.48
62248;BME280;48237;50.140;8.486;2022-10-03T17:26:23;100528.32;;;13.71;85.69
62248;BME280;48237;50.140;8.486;2022-10-03T17:28:54;100533.12;;;14.05;81.67
62248;BME280;48237;50.140;8.486;2022-10-03T17:31:29;100533.12;;;13.83;81.67
62248;BME280;48237;50.140;8.486;2022-10-03T17:34:03;100530.49;;;13.86;83.55
62248;BME280;48237;50.140;8.486;2022-10-03T17:37:00;100527.18;;;13.94;82.05
62248;BME280;48237;50.140;8.486;2022-10-03T17:39:37;100527.71;;;13.95;80.57
62248;BME280;48237;50.140;8.486;2022-10-03T17:42:21;100527.39;;;13.86;79.93
62248;BME280;48237;50.140;8.486;2022-10-03T17:44:56;100526.99;;;13.73;83.32
62248;BME280;48237;50.140;8.486;2022-10-03T17:47:32;100525.48;;;13.84;82.65
62248;BME280;48237;50.140;8.486;2022-10-03T17:50:05;100525.78;;;13.07;86.48
62248;BME280;48237;50.140;8.486;2022-10-03T17:52:33;100524.67;;;13.50;85.28
62248;BME280;48237;50.140;8.486;2022-10-03T17:55:06;100529.55;;;12.83;90.66
62248;BME280;48237;50.140;8.486;2022-10-03T17:57:40;100528.09;;;12.21;91.09
62248;BME280;48237;50.140;8.486;2022-10-03T18:00:17;100523.56;;;12.99;83.84
62248;BME280;48237;50.140;8.486;2022-10-03T18:02:53;100525.96;;;12.94;81.81
62248;BME280;48237;50.140;8.486;2022-10-03T18:05:25;100534.47;;;13.44;83.85
62248;BME280;48237;50.140;8.486;2022-10-03T18:07:53;100536.84;;;12.91;85.28
62248;BME280;48237;50.140;8.486;2022-10-03T18:10:24;100534.45;;;12.81;85.00
62248;BME280;48237;50.140;8.486;2022-10-03T18:12:55;100531.80;;;12.91;83.82
62248;BME280;48237;50.140;8.486;2022-10-03T18:15:55;100524.92;;;13.34;82.91
62248;BME280;48237;50.140;8.486;2022-10-03T18:18:46;100526.98;;;13.05;86.15
62248;BME280;48237;50.140;8.486;2022-10-03T18:21:27;100532.13;;;12.11;88.10
62248;BME280;48237;50.140;8.486;2022-10-03T18:24:13;100530.62;;;12.49;88.48
62248;BME280;48237;50.140;8.486;2022-10-03T18:26:43;100530.65;;;12.40;87.64
62248;BME280;48237;50.140;8.486;2022-10-03T18:29:23;100532.67;;;11.94;89.03
62248;BME280;48237;50.140;8.486;2022-10-03T18:31:57;100531.17;;;12.27;89.49
62248;BME280;48237;50.140;8.486;2022-10-03T18:34:32;100529.44;;;11.96;89.78
62248;BME280;48237;50.140;8.486;2022-10-03T18:37:16;100530.72;;;11.97;90.99
62248;BME280;48237;50.140;8.486;2022-10-03T18:40:18;100526.41;;;12.25;90.19
62248;BME280;48237;50.140;8.486;2022-10-03T18:42:47;100523.61;;;11.98;91.03
62248;BME280;48237;50.140;8.486;2022-10-03T18:45:18;100521.85;;;12.20;90.44
62248;BME280;48237;50.140;8.486;2022-10-03T18:47:50;100522.79;;;11.18;90.48
62248;BME280;48237;50.140;8.486;2022-10-03T18:50:22;100520.72;;;11.96;89.84
62248;BME280;48237;50.140;8.486;2022-10-03T18:52:57;100522.19;;;11.78;90.01
62248;BME280;48237;50.140;8.486;2022-10-03T18:55:28;100521.57;;;11.60;89.04
62248;BME280;48237;50.140;8.486;2022-10-03T18:58:00;100519.98;;;11.61;89.97
62248;BME280;48237;50.140;8.486;2022-10-03T19:00:43;100520.37;;;11.50;91.79
62248;BME280;48237;50.140;8.486;2022-10-03T19:03:14;100524.82;;;11.92;89.99
62248;BME280;48237;50.140;8.486;2022-10-03T19:05:46;100525.53;;;11.23;91.97
62248;BME280;48237;50.140;8.486;2022-10-03T19:08:20;100529.78;;;10.44;97.40
62248;BME280;48237;50.140;8.486;2022-10-03T19:10:50;100520.97;;;11.85;88.00
62248;BME280;48237;50.140;8.486;2022-10-03T19:13:26;100522.97;;;11.79;89.71
62248;BME280;48237;50.140;8.486;2022-10-03T19:16:13;100517.94;;;11.28;90.41
62248;BME280;48237;50.140;8.486;2022-10-03T19:18:48;100518.89;;;10.84;92.43
62248;BME280;48237;50.140;8.486;2022-10-03T19:21:21;100518.75;;;10.68;96.26
62248;BME280;48237;50.140;8.486;2022-10-03T19:23:51;100521.38;;;10.84;93.09
62248;BME280;48237;50.140;8.486;2022-10-03T19:26:26;100525.06;;;10.89;95.88
62248;BME280;48237;50.140;8.486;2022-10-03T19:28:56;100523.46;;;10.76;94.57
62248;BME280;48237;50.140;8.486;2022-10-03T19:31:29;100518.62;;;11.02;94.32
62248;BME280;48237;50.140;8.486;2022-10-03T19:33:59;100518.71;;;10.77;93.79
62248;BME280;48237;50.140;8.486;2022-10-03T19:36:33;100516.65;;;10.29;96.90
62248;BME280;48237;50.140;8.486;2022-10-03T19:39:03;100508.64;;;10.94;96.45
62248;BME280;48237;50.140;8.486;2022-10-03T19:41:34;100507.78;;;11.79;88.74
62248;BME280;48237;50.140;8.486;2022-10-03T19:44:06;100503.34;;;12.39;85.75
62248;BME280;48237;50.140;8.486;2022-10-03T19:46:48;100507.60;;;10.53;94.18
62248;BME280;48237;50.140;8.486;2022-10-03T19:49:24;100510.52;;;11.65;91.02
62248;BME280;48237;50.140;8.486;2022-10-03T19:52:13;100504.96;;;11.81;86.39
62248;BME280;48237;50.140;8.486;2022-10-03T19:54:46;100501.62;;;11.68;87.38
62248;BME280;48237;50.140;8.486;2022-10-03T19:57:17;100503.15;;;11.55;86.11
62248;BME280;48237;50.140;8.486;2022-10-03T19:59:48;100503.89;;;11.78;88.73
62248;BME280;48237;50.140;8.486;2022-10-03T20:02:21;100505.53;;;11.27;91.28
62248;BME280;48237;50.140;8.486;2022-10-03T20:04:50;100504.04;;;11.19;89.58
62248;BME280;48237;50.140;8.486;2022-10-03T20:07:24;100507.43;;;10.49;94.11
62248;BME280;48237;50.140;8.486;2022-10-03T20:09:56;100513.50;;;9.90;97.31
62248;BME280;48237;50.140;8.486;2022-10-03T20:12:25;100501.50;;;11.48;89.36
62248;BME280;48237;50.140;8.486;2022-10-03T20:14:58;100501.23;;;11.26;88.31
62248;BME280;48237;50.140;8.486;2022-10-03T20:17:28;100502.80;;;11.33;89.47
62248;BME280;48237;50.140;8.486;2022-10-03T20:19:59;100500.76;;;11.16;87.14
62248;BME280;48237;50.140;8.486;2022-10-03T20:22:31;100502.08;;;10.76;87.06
62248;BME280;48237;50.140;8.486;2022-10-03T20:25:00;100495.68;;;12.09;83.32
62248;BME280;48237;50.140;8.486;2022-10-03T20:27:35;100493.15;;;11.35;84.53
62248;BME280;48237;50.140;8.486;2022-10-03T20:30:18;100493.79;;;11.77;85.36
62248;BME280;48237;50.140;8.486;2022-10-03T20:32:48;100493.20;;;11.70;84.58
62248;BME280;48237;50.140;8.486;2022-10-03T20:35:21;100495.79;;;11.02;87.00
62248;BME280;48237;50.140;8.486;2022-10-03T20:37:54;100490.97;;;11.23;84.29
62248;BME280;48237;50.140;8.486;2022-10-03T20:40:28;100499.33;;;11.72;83.03
62248;BME280;48237;50.140;8.486;2022-10-03T20:43:09;100499.65;;;11.53;85.29
62248;BME280;48237;50.140;8.486;2022-10-03T20:45:42;100501.43;;;11.34;83.72
62248;BME280;48237;50.140;8.486;2022-10-03T20:48:17;100500.85;;;11.10;87.44
62248;BME280;48237;50.140;8.486;2022-10-03T20:50:49;100503.27;;;11.41;85.21